createdAt,value
2019-02-14T00:01:32.723Z,100.00
2019-02-14T00:04:01.582Z,100.00
2019-02-14T00:06:30.961Z,100.00
2019-02-14T00:08:59.238Z,100.00
2019-02-14T00:11:27.264Z,100.00
2019-02-14T00:13:55.493Z,100.00
2019-02-14T00:16:24.015Z,100.00
2019-02-14T00:18:52.535Z,100.00
2019-02-14T00:21:20.675Z,100.00
2019-02-14T00:23:48.663Z,100.00
2019-02-14T00:26:16.600Z,100.00
2019-02-14T00:28:44.817Z,100.00
2019-02-14T00:31:13.048Z,100.00
2019-02-14T00:33:41.671Z,100.00
2019-02-14T00:36:10.177Z,100.00
2019-02-14T00:38:38.724Z,100.00
2019-02-14T00:41:06.986Z,100.00
2019-02-14T00:43:34.777Z,100.00
2019-02-14T00:46:03.002Z,100.00
2019-02-14T00:48:30.797Z,100.00
2019-02-14T00:50:59.079Z,100.00
2019-02-14T00:53:27.248Z,100.00
2019-02-14T00:55:55.487Z,100.00
2019-02-14T00:58:23.664Z,100.00
2019-02-14T01:00:51.872Z,100.00
2019-02-14T01:03:20.358Z,100.00
2019-02-14T01:05:48.280Z,100.00
2019-02-14T01:08:16.613Z,100.00
2019-02-14T01:10:44.801Z,100.00
2019-02-14T01:13:12.597Z,100.00
2019-02-14T01:15:41.193Z,100.00
2019-02-14T01:18:09.180Z,100.00
2019-02-14T01:20:37.856Z,100.00
2019-02-14T01:23:06.380Z,100.00
2019-02-14T01:25:35.390Z,100.00
2019-02-14T01:28:04.152Z,100.00
2019-02-14T01:30:32.105Z,100.00
2019-02-14T01:33:00.080Z,100.00
2019-02-14T01:35:29.543Z,100.00
2019-02-14T01:37:57.802Z,100.00
2019-02-14T01:40:25.965Z,100.00
2019-02-14T01:42:54.790Z,100.00
2019-02-14T01:45:23.513Z,100.00
2019-02-14T01:47:51.438Z,100.00
2019-02-14T01:50:19.684Z,100.00
2019-02-14T01:52:47.916Z,100.00
2019-02-14T01:55:16.551Z,100.00
2019-02-14T01:57:44.324Z,100.00
2019-02-14T02:00:14.107Z,100.00
2019-02-14T02:02:43.037Z,100.00
2019-02-14T02:05:11.086Z,100.00
2019-02-14T02:07:39.017Z,100.00
2019-02-14T02:10:09.942Z,100.00
2019-02-14T02:12:37.809Z,100.00
2019-02-14T02:15:07.865Z,100.00
2019-02-14T02:17:37.419Z,100.00
2019-02-14T02:20:06.299Z,100.00
2019-02-14T02:22:34.910Z,100.00
2019-02-14T02:25:03.436Z,100.00
2019-02-14T02:27:31.638Z,100.00
2019-02-14T02:30:00.077Z,100.00
2019-02-14T02:32:28.101Z,100.00
2019-02-14T02:34:56.230Z,100.00
2019-02-14T02:37:24.838Z,100.00
2019-02-14T02:39:52.909Z,100.00
2019-02-14T02:42:21.360Z,100.00
2019-02-14T02:44:50.016Z,100.00
2019-02-14T02:47:18.070Z,100.00
2019-02-14T02:49:46.108Z,100.00
2019-02-14T02:52:14.692Z,100.00
2019-02-14T02:54:42.815Z,100.00
2019-02-14T02:57:11.782Z,100.00
2019-02-14T02:59:41.112Z,100.00
2019-02-14T03:02:11.152Z,100.00
2019-02-14T03:04:39.926Z,100.00
2019-02-14T03:07:08.341Z,100.00
2019-02-14T03:09:36.935Z,100.00
2019-02-14T03:12:05.258Z,100.00
2019-02-14T03:14:33.801Z,100.00
2019-02-14T03:17:02.930Z,100.00
2019-02-14T03:19:31.097Z,100.00
2019-02-14T03:21:59.107Z,100.00
2019-02-14T03:24:28.136Z,100.00
2019-02-14T03:26:57.007Z,100.00
2019-02-14T03:29:25.778Z,100.00
2019-02-14T03:31:53.971Z,100.00
2019-02-14T03:34:21.952Z,100.00
2019-02-14T03:36:50.537Z,100.00
2019-02-14T03:39:20.596Z,100.00
2019-02-14T03:41:48.512Z,100.00
2019-02-14T03:44:16.968Z,100.00
2019-02-14T03:46:44.784Z,100.00
2019-02-14T03:49:12.587Z,100.00
2019-02-14T03:51:41.175Z,100.00
2019-02-14T03:54:09.532Z,100.00
2019-02-14T03:56:37.966Z,100.00
2019-02-14T03:59:06.721Z,100.00
2019-02-14T04:01:34.643Z,100.00
2019-02-14T04:04:03.718Z,100.00
2019-02-14T04:06:31.761Z,100.00
2019-02-14T04:08:59.831Z,100.00
2019-02-14T04:11:27.653Z,100.00
2019-02-14T04:13:56.151Z,100.00
2019-02-14T04:16:24.370Z,100.00
2019-02-14T04:18:52.583Z,100.00
2019-02-14T04:21:21.874Z,100.00
2019-02-14T04:23:50.101Z,100.00
2019-02-14T04:26:18.492Z,100.00
2019-02-14T04:28:47.296Z,100.00
2019-02-14T04:31:15.476Z,100.00
2019-02-14T04:33:43.584Z,100.00
2019-02-14T04:36:12.212Z,100.00
2019-02-14T04:38:40.486Z,100.00
2019-02-14T04:41:08.593Z,100.00
2019-02-14T04:43:38.849Z,100.00
2019-02-14T04:46:09.080Z,100.00
2019-02-14T04:48:36.849Z,100.00
2019-02-14T04:51:05.318Z,100.00
2019-02-14T04:53:33.493Z,100.00
2019-02-14T04:56:01.761Z,100.00
2019-02-14T04:58:30.397Z,100.00
2019-02-14T05:00:58.663Z,100.00
2019-02-14T05:03:26.598Z,100.00
2019-02-14T05:05:55.574Z,100.00
2019-02-14T05:08:23.555Z,100.00
2019-02-14T05:11:16.671Z,100.00
2019-02-14T05:13:46.459Z,100.00
2019-02-14T05:16:14.426Z,100.00
2019-02-14T05:18:42.718Z,100.00
2019-02-14T05:21:11.512Z,100.00
2019-02-14T05:23:39.432Z,100.00
2019-02-14T05:26:07.686Z,100.00
2019-02-14T05:28:36.491Z,100.00
2019-02-14T05:31:05.457Z,100.00
2019-02-14T05:33:33.447Z,100.00
2019-02-14T05:36:02.168Z,100.00
2019-02-14T05:38:30.511Z,100.00
2019-02-14T05:40:58.563Z,100.00
2019-02-14T05:43:26.548Z,100.00
2019-02-14T05:45:54.347Z,100.00
2019-02-14T05:48:22.525Z,100.00
2019-02-14T05:50:50.729Z,100.00
2019-02-14T05:53:18.462Z,100.00
2019-02-14T05:55:46.937Z,100.00
2019-02-14T05:58:15.181Z,100.00
2019-02-14T06:00:43.001Z,100.00
2019-02-14T06:03:10.932Z,100.00
2019-02-14T06:05:39.396Z,100.00
2019-02-14T06:08:07.629Z,100.00
2019-02-14T06:10:36.009Z,100.00
2019-02-14T06:13:04.370Z,100.00
2019-02-14T06:15:34.302Z,100.00
2019-02-14T06:18:03.134Z,100.00
2019-02-14T06:20:31.156Z,100.00
2019-02-14T06:22:58.905Z,100.00
2019-02-14T06:25:27.385Z,100.00
2019-02-14T06:27:56.851Z,100.00
2019-02-14T06:30:25.815Z,100.00
2019-02-14T06:32:54.338Z,100.00
2019-02-14T06:35:23.055Z,100.00
2019-02-14T06:37:53.125Z,100.00
2019-02-14T06:40:22.152Z,100.00
2019-02-14T06:42:50.136Z,100.00
2019-02-14T06:45:18.442Z,100.00
2019-02-14T06:47:46.728Z,100.00
2019-02-14T06:50:14.821Z,100.00
2019-02-14T06:52:43.069Z,100.00
2019-02-14T06:55:11.028Z,100.00
2019-02-14T06:57:39.897Z,100.00
2019-02-14T07:00:10.662Z,100.00
2019-02-14T07:02:38.598Z,100.00
2019-02-14T07:05:07.270Z,100.00
2019-02-14T07:07:36.902Z,100.00
2019-02-14T07:10:07.270Z,100.00
2019-02-14T07:12:35.797Z,100.00
2019-02-14T07:15:03.956Z,100.00
2019-02-14T07:17:31.968Z,100.00
2019-02-14T07:20:00.495Z,100.00
2019-02-14T07:22:28.324Z,100.00
2019-02-14T07:24:56.654Z,100.00
2019-02-14T07:27:24.862Z,100.00
2019-02-14T07:29:53.256Z,100.00
2019-02-14T07:32:22.538Z,100.00
2019-02-14T07:34:50.729Z,100.00
2019-02-14T07:37:26.383Z,100.00
2019-02-14T07:39:47.771Z,100.00
2019-02-14T07:42:15.963Z,100.00
2019-02-14T07:44:44.453Z,100.00
2019-02-14T07:47:12.221Z,100.00
2019-02-14T07:49:40.204Z,100.00
2019-02-14T07:52:08.314Z,100.00
2019-02-14T07:54:36.110Z,100.00
2019-02-14T07:57:05.496Z,100.00
2019-02-14T07:59:33.746Z,100.00
2019-02-14T08:02:03.630Z,100.00
2019-02-14T08:04:33.223Z,100.00
2019-02-14T08:07:01.048Z,100.00
2019-02-14T08:09:29.199Z,100.00
2019-02-14T08:11:57.001Z,100.00
2019-02-14T08:14:24.957Z,100.00
2019-02-14T08:16:53.674Z,100.00
2019-02-14T08:19:23.185Z,100.00
2019-02-14T08:21:52.528Z,100.00
2019-02-14T08:24:21.987Z,100.00
2019-02-14T08:26:50.351Z,100.00
2019-02-14T08:29:18.202Z,100.00
2019-02-14T08:31:46.071Z,100.00
2019-02-14T08:34:14.795Z,100.00
2019-02-14T08:36:43.199Z,100.00
2019-02-14T08:39:11.416Z,100.00
2019-02-14T08:41:39.226Z,100.00
2019-02-14T08:44:07.236Z,100.00
2019-02-14T08:46:35.272Z,100.00
2019-02-14T08:49:03.753Z,100.00
2019-02-14T08:51:32.629Z,100.00
2019-02-14T08:54:00.059Z,100.00
2019-02-14T08:56:29.253Z,100.00
2019-02-14T08:58:57.249Z,100.00
2019-02-14T09:01:25.094Z,100.00
2019-02-14T09:03:53.232Z,100.00
2019-02-14T09:06:21.091Z,100.00
2019-02-14T09:08:49.877Z,100.00
2019-02-14T09:11:17.609Z,100.00
2019-02-14T09:13:45.925Z,100.00
2019-02-14T09:16:13.857Z,100.00
2019-02-14T09:18:44.200Z,100.00
2019-02-14T09:21:15.735Z,100.00
2019-02-14T09:23:43.715Z,100.00
2019-02-14T09:26:13.432Z,100.00
2019-02-14T09:28:42.016Z,100.00
2019-02-14T09:31:09.801Z,100.00
2019-02-14T09:33:37.849Z,100.00
2019-02-14T09:36:06.006Z,100.00
2019-02-14T09:38:33.847Z,100.00
2019-02-14T09:41:04.606Z,100.00
2019-02-14T09:43:33.816Z,100.00
2019-02-14T09:46:02.741Z,100.00
2019-02-14T09:48:31.818Z,100.00
2019-02-14T09:50:59.646Z,100.00
2019-02-14T09:53:29.065Z,100.00
2019-02-14T09:55:59.439Z,100.00
2019-02-14T09:58:31.015Z,99.52
2019-02-14T10:00:59.293Z,97.81
2019-02-14T10:03:27.106Z,96.87
2019-02-14T10:05:55.806Z,96.25
2019-02-14T10:08:23.742Z,95.86
2019-02-14T10:10:51.506Z,95.79
2019-02-14T10:13:21.041Z,94.59
2019-02-14T10:19:06.939Z,91.51
2019-02-14T10:21:35.073Z,91.37
2019-02-14T10:24:03.110Z,91.24
2019-02-14T10:26:31.307Z,90.93
2019-02-14T10:28:59.058Z,91.67
2019-02-14T10:31:28.948Z,91.46
2019-02-14T10:33:57.172Z,91.23
2019-02-14T10:36:30.753Z,91.41
2019-02-14T10:38:58.524Z,91.57
2019-02-14T10:41:29.206Z,92.15
2019-02-14T10:43:54.957Z,93.62
2019-02-14T10:46:23.039Z,94.69
2019-02-14T10:48:51.306Z,94.55
2019-02-14T10:51:21.407Z,93.78
2019-02-14T10:53:50.856Z,92.41
2019-02-14T10:56:19.526Z,91.82
2019-02-14T10:58:47.298Z,89.78
2019-02-14T11:01:16.566Z,87.58
2019-02-14T11:03:44.603Z,86.88
2019-02-14T11:06:14.330Z,85.67
2019-02-14T11:08:43.556Z,84.68
2019-02-14T11:11:12.583Z,83.97
2019-02-14T11:13:40.761Z,83.34
2019-02-14T11:16:09.756Z,81.89
2019-02-14T11:18:43.917Z,80.73
2019-02-14T11:21:09.258Z,79.23
2019-02-14T11:23:37.525Z,79.54
2019-02-14T11:26:05.792Z,80.20
2019-02-14T11:28:34.320Z,79.00
2019-02-14T11:31:04.987Z,75.75
2019-02-14T11:33:33.247Z,75.82
2019-02-14T11:36:01.673Z,74.76
2019-02-14T11:38:29.679Z,72.66
2019-02-14T11:40:57.474Z,70.60
2019-02-14T11:43:29.451Z,69.87
2019-02-14T11:45:57.644Z,67.36
2019-02-14T11:48:26.092Z,68.20
2019-02-14T11:50:56.039Z,67.66
2019-02-14T11:53:26.618Z,67.21
2019-02-14T11:58:46.798Z,65.14
2019-02-14T12:01:14.702Z,65.84
2019-02-14T12:03:42.460Z,63.69
2019-02-14T12:06:17.332Z,65.12
2019-02-14T12:08:50.101Z,65.98
2019-02-14T12:11:10.069Z,66.08
2019-02-14T12:13:39.598Z,64.37
2019-02-14T12:16:08.266Z,65.19
2019-02-14T12:18:36.328Z,65.42
2019-02-14T12:21:04.224Z,65.50
2019-02-14T12:23:34.880Z,63.66
2019-02-14T12:26:05.504Z,63.05
2019-02-14T12:28:31.369Z,63.48
2019-02-14T12:30:59.227Z,64.84
2019-02-14T12:33:28.787Z,64.10
2019-02-14T12:35:56.699Z,60.73
2019-02-14T12:38:24.921Z,59.12
2019-02-14T12:40:52.887Z,59.01
2019-02-14T12:43:20.690Z,58.82
2019-02-14T12:45:51.970Z,57.06
2019-02-14T12:48:19.842Z,56.42
2019-02-14T12:50:50.479Z,56.95
2019-02-14T12:53:19.071Z,53.80
2019-02-14T12:55:47.906Z,54.09
2019-02-14T12:58:15.921Z,54.92
2019-02-14T13:00:44.508Z,55.16
2019-02-14T13:03:13.590Z,55.49
2019-02-14T13:05:42.107Z,57.47
2019-02-14T13:08:09.989Z,57.93
2019-02-14T13:10:37.834Z,58.10
2019-02-14T13:13:07.939Z,58.17
2019-02-14T13:15:35.981Z,57.66
2019-02-14T13:18:07.117Z,56.71
2019-02-14T13:20:40.686Z,56.97
2019-02-14T13:23:09.085Z,57.65
2019-02-14T13:25:37.532Z,57.24
2019-02-14T13:28:05.357Z,56.76
2019-02-14T13:30:33.405Z,57.27
2019-02-14T13:33:03.883Z,57.25
2019-02-14T13:35:31.733Z,58.11
2019-02-14T13:38:00.037Z,57.09
2019-02-14T13:40:30.005Z,56.68
2019-02-14T13:43:00.575Z,56.20
2019-02-14T13:45:29.418Z,57.15
2019-02-14T13:48:01.445Z,57.82
2019-02-14T13:50:30.557Z,57.78
2019-02-14T13:53:00.134Z,57.86
2019-02-14T13:55:28.435Z,58.29
2019-02-14T13:57:57.159Z,58.73
2019-02-14T14:00:30.011Z,59.63
2019-02-14T14:03:03.089Z,58.86
2019-02-14T14:05:35.560Z,59.68
2019-02-14T14:08:08.293Z,60.08
2019-02-14T14:10:36.848Z,59.03
2019-02-14T14:13:10.537Z,57.41
2019-02-14T14:15:39.514Z,57.35
2019-02-14T14:18:10.140Z,57.16
2019-02-14T14:20:38.541Z,57.21
2019-02-14T14:23:11.197Z,57.28
2019-02-14T14:25:40.433Z,57.26
2019-02-14T14:28:09.218Z,57.57
2019-02-14T14:30:41.232Z,57.18
2019-02-14T14:33:11.287Z,57.48
2019-02-14T14:35:39.659Z,57.36
2019-02-14T14:38:15.795Z,57.07
2019-02-14T14:40:44.447Z,57.57
2019-02-14T14:43:24.160Z,57.93
2019-02-14T14:46:06.662Z,58.57
2019-02-14T14:48:38.487Z,58.89
2019-02-14T14:51:07.767Z,59.30
2019-02-14T14:53:41.092Z,59.16
2019-02-14T14:56:08.406Z,58.56
2019-02-14T14:58:36.995Z,58.73
2019-02-14T15:01:05.702Z,59.30
2019-02-14T15:03:37.433Z,59.62
2019-02-14T15:06:07.133Z,59.85
2019-02-14T15:08:35.155Z,60.05
2019-02-14T15:11:06.636Z,60.05
2019-02-14T15:13:35.734Z,59.78
2019-02-14T15:16:06.783Z,59.46
2019-02-14T15:18:35.347Z,59.87
2019-02-14T15:21:04.640Z,60.39
2019-02-14T15:23:36.645Z,60.45
2019-02-14T15:26:05.633Z,60.62
2019-02-14T15:28:37.575Z,60.64
2019-02-14T15:31:14.674Z,60.54
2019-02-14T15:33:47.879Z,60.85
2019-02-14T15:36:22.126Z,61.16
2019-02-14T15:38:51.401Z,61.27
2019-02-14T15:41:23.626Z,61.44
2019-02-14T15:43:55.752Z,61.76
2019-02-14T15:46:23.766Z,61.87
2019-02-14T15:48:52.764Z,62.10
2019-02-14T15:51:25.056Z,62.30
2019-02-14T15:53:53.455Z,62.38
2019-02-14T15:56:21.421Z,62.58
2019-02-14T15:58:52.930Z,62.88
2019-02-14T16:01:20.301Z,63.02
2019-02-14T16:03:49.000Z,63.20
2019-02-14T16:06:20.515Z,63.51
2019-02-14T16:08:49.285Z,63.84
2019-02-14T16:11:17.287Z,64.04
2019-02-14T16:13:45.110Z,64.32
2019-02-14T16:16:13.484Z,64.67
2019-02-14T16:18:41.893Z,64.95
2019-02-14T16:21:09.916Z,65.26
2019-02-14T16:23:37.910Z,65.46
2019-02-14T16:26:06.987Z,65.67
2019-02-14T16:28:37.697Z,65.83
2019-02-14T16:31:05.063Z,65.79
2019-02-14T16:33:33.170Z,65.82
2019-02-14T16:36:01.163Z,66.16
2019-02-14T16:38:29.406Z,66.53
2019-02-14T16:40:57.347Z,66.75
2019-02-14T16:43:25.875Z,66.76
2019-02-14T16:45:53.881Z,67.11
2019-02-14T16:48:24.831Z,67.28
2019-02-14T16:50:57.330Z,67.42
2019-02-14T16:53:30.739Z,67.75
2019-02-14T16:56:02.201Z,68.04
2019-02-14T16:58:28.996Z,68.39
2019-02-14T17:00:57.317Z,68.75
2019-02-14T17:03:25.250Z,69.23
2019-02-14T17:05:53.330Z,69.69
2019-02-14T17:08:21.324Z,70.01
2019-02-14T17:10:49.614Z,70.42
2019-02-14T17:13:18.021Z,70.84
2019-02-14T17:15:47.758Z,71.32
2019-02-14T17:18:17.308Z,71.61
2019-02-14T17:20:45.857Z,71.68
2019-02-14T17:23:16.046Z,71.78
2019-02-14T17:25:44.614Z,71.94
2019-02-14T17:28:15.807Z,72.06
2019-02-14T17:30:46.594Z,72.34
2019-02-14T17:33:15.356Z,72.51
2019-02-14T17:35:47.015Z,72.75
2019-02-14T17:38:16.435Z,72.98
2019-02-14T17:40:46.427Z,73.18
2019-02-14T17:43:15.485Z,73.52
2019-02-14T17:45:44.891Z,73.85
2019-02-14T17:48:14.905Z,74.06
2019-02-14T17:50:45.399Z,74.33
2019-02-14T17:53:19.096Z,74.73
2019-02-14T17:55:49.661Z,75.15
2019-02-14T17:58:19.634Z,75.67
2019-02-14T18:00:47.507Z,76.18
2019-02-14T18:03:17.333Z,76.57
2019-02-14T18:05:46.637Z,77.27
2019-02-14T18:08:16.003Z,77.81
2019-02-14T18:10:45.548Z,78.20
2019-02-14T18:13:17.814Z,78.43
2019-02-14T18:15:48.641Z,78.47
2019-02-14T18:18:18.681Z,78.89
2019-02-14T18:20:49.647Z,78.99
2019-02-14T18:23:18.946Z,79.09
2019-02-14T18:25:47.753Z,79.15
2019-02-14T18:28:16.010Z,79.26
2019-02-14T18:30:44.345Z,79.78
2019-02-14T18:33:13.030Z,80.37
2019-02-14T18:35:40.858Z,80.93
2019-02-14T18:38:08.641Z,81.26
2019-02-14T18:40:36.462Z,81.42
2019-02-14T18:43:05.041Z,81.43
2019-02-14T18:45:33.301Z,81.65
2019-02-14T18:48:01.462Z,81.90
2019-02-14T18:50:29.530Z,82.39
2019-02-14T18:52:57.532Z,82.87
2019-02-14T18:55:25.917Z,83.26
2019-02-14T18:57:53.838Z,83.86
2019-02-14T19:00:22.486Z,84.53
2019-02-14T19:02:50.753Z,85.07
2019-02-14T19:05:18.629Z,85.44
2019-02-14T19:07:46.543Z,85.71
2019-02-14T19:10:14.908Z,86.09
2019-02-14T19:12:42.680Z,86.38
2019-02-14T19:15:10.981Z,86.73
2019-02-14T19:17:38.869Z,86.99
2019-02-14T19:20:07.414Z,87.27
2019-02-14T19:22:35.975Z,87.45
2019-02-14T19:25:05.007Z,87.60
2019-02-14T19:27:33.906Z,87.73
2019-02-14T19:30:02.723Z,88.04
2019-02-14T19:32:30.765Z,88.18
2019-02-14T19:34:58.988Z,88.37
2019-02-14T19:37:27.003Z,88.73
2019-02-14T19:39:55.466Z,89.00
2019-02-14T19:42:23.466Z,88.98
2019-02-14T19:44:51.303Z,88.83
2019-02-14T19:47:19.498Z,88.62
2019-02-14T19:49:47.477Z,88.45
2019-02-14T19:52:15.350Z,88.37
2019-02-14T19:54:43.204Z,88.49
2019-02-14T19:57:11.272Z,88.86
2019-02-14T19:59:39.518Z,89.47
2019-02-14T20:02:07.492Z,90.05
2019-02-14T20:04:35.483Z,90.34
2019-02-14T20:07:04.051Z,90.80
2019-02-14T20:09:31.937Z,91.08
2019-02-14T20:12:03.885Z,91.54
2019-02-14T20:14:32.012Z,91.98
2019-02-14T20:17:00.253Z,92.06
2019-02-14T20:19:28.910Z,92.01
2019-02-14T20:21:57.355Z,92.15
2019-02-14T20:24:26.656Z,92.52
2019-02-14T20:26:54.628Z,93.15
2019-02-14T20:29:22.490Z,93.70
2019-02-14T20:31:50.688Z,93.84
2019-02-14T20:34:18.506Z,94.06
2019-02-14T20:36:46.413Z,94.36
2019-02-14T20:39:16.799Z,94.57
2019-02-14T20:41:47.556Z,94.87
2019-02-14T20:44:15.874Z,95.07
2019-02-14T20:46:44.305Z,95.19
2019-02-14T20:49:12.184Z,95.41
2019-02-14T20:51:40.941Z,95.47
2019-02-14T20:54:09.501Z,95.41
2019-02-14T20:56:39.361Z,95.71
2019-02-14T20:59:08.075Z,95.85
2019-02-14T21:01:36.978Z,95.92
2019-02-14T21:04:05.434Z,96.01
2019-02-14T21:06:33.302Z,96.02
2019-02-14T21:09:03.174Z,95.70
2019-02-14T21:11:33.017Z,95.77
2019-02-14T21:14:01.123Z,95.98
2019-02-14T21:16:29.285Z,96.00
2019-02-14T21:19:01.010Z,96.01
2019-02-14T21:21:30.232Z,96.04
2019-02-14T21:24:04.700Z,96.07
2019-02-14T21:26:32.838Z,96.17
2019-02-14T21:29:01.891Z,96.14
2019-02-14T21:31:31.181Z,96.08
2019-02-14T21:34:01.729Z,95.88
2019-02-14T21:36:34.767Z,95.78
2019-02-14T21:39:10.199Z,95.52
2019-02-14T21:41:41.621Z,95.25
2019-02-14T21:44:13.041Z,95.04
2019-02-14T21:46:41.272Z,94.84
2019-02-14T21:49:11.178Z,94.58
2019-02-14T21:51:40.439Z,94.31
2019-02-14T21:54:11.419Z,94.26
2019-02-14T21:56:39.540Z,94.22
2019-02-14T21:59:08.453Z,94.09
2019-02-14T22:01:39.144Z,94.29
2019-02-14T22:04:12.213Z,94.62
2019-02-14T22:06:40.360Z,94.85
2019-02-14T22:09:09.116Z,95.08
2019-02-14T22:11:37.845Z,95.39
2019-02-14T22:14:06.126Z,95.64
2019-02-14T22:16:35.059Z,95.95
2019-02-14T22:19:04.061Z,96.10
2019-02-14T22:21:32.138Z,96.17
2019-02-14T22:24:00.368Z,96.18
2019-02-14T22:26:28.811Z,96.31
2019-02-14T22:28:57.119Z,96.46
2019-02-14T22:31:25.627Z,96.72
2019-02-14T22:33:54.783Z,97.05
2019-02-14T22:36:23.117Z,97.17
2019-02-14T22:38:54.551Z,97.26
2019-02-14T22:41:26.483Z,97.17
2019-02-14T22:43:54.766Z,97.10
2019-02-14T22:46:23.064Z,97.05
2019-02-14T22:48:52.167Z,96.91
2019-02-14T22:51:20.838Z,96.76
2019-02-14T22:53:49.624Z,96.60
2019-02-14T22:56:25.506Z,96.27
2019-02-14T22:58:56.245Z,96.11
2019-02-14T23:01:29.339Z,95.96
2019-02-14T23:03:57.628Z,95.81
2019-02-14T23:06:26.046Z,95.71
2019-02-14T23:08:55.093Z,95.60
2019-02-14T23:11:23.261Z,95.51
2019-02-14T23:13:51.738Z,95.43
2019-02-14T23:16:21.503Z,95.46
2019-02-14T23:18:53.287Z,95.44
2019-02-14T23:21:22.638Z,95.51
2019-02-14T23:23:52.200Z,95.55
2019-02-14T23:26:20.083Z,95.45
2019-02-14T23:28:48.344Z,95.51
2019-02-14T23:31:21.878Z,95.54
2019-02-14T23:33:50.096Z,95.48
2019-02-14T23:36:18.693Z,95.47
2019-02-14T23:38:46.583Z,95.46
2019-02-14T23:41:15.626Z,95.45
2019-02-14T23:43:43.937Z,95.42
2019-02-14T23:46:12.534Z,95.55
2019-02-14T23:48:41.259Z,95.75
2019-02-14T23:51:11.259Z,95.72
2019-02-14T23:53:43.467Z,95.99
2019-02-14T23:56:15.829Z,96.19
2019-02-14T23:58:44.981Z,96.34
